logo tempoitalia

Diretta Meteo Lleida-Alguaire Airport, Spagnalunedì 31 agosto ore 07:00

Mappa
Sereno 19 °C Sereno 24 Ore: T.min 19 T.max 33
Ponente Sud/Sud-Est Km/h 7.4 Punto di rugiada: 17 °C Umidità: 88% Visibilità: 10 Km
Il sole sorge alle: 07:22 Il sole tramonta alle: 20:33
31 Agosto 2026 07:00 tempo osservato: Sereno Sereno 19 88 1018 vento: Nord S/SE 7.4
31 Agosto 2026 06:30 tempo osservato: Poco Nuvoloso Poco Nuvoloso 20 82 1018 vento: Nord S 7.4
31 Agosto 2026 06:00 tempo osservato: Sereno Sereno 20 59 1018 vento: Nord N 3.7
31 Agosto 2026 05:30 tempo osservato: Sereno Sereno 21 49 1018 vento: Nord N 3.7
31 Agosto 2026 05:00 tempo osservato: Sereno Sereno 21 49 1018 vento: Nord E 11.1
31 Agosto 2026 04:30 tempo osservato: Sereno Sereno 22 49 1018 vento: Nord E 13
31 Agosto 2026 04:00 tempo osservato: Sereno Sereno 22 49 1018 vento: Nord E 14.8
31 Agosto 2026 03:30 tempo osservato: Sereno Sereno 22 49 1018 vento: Nord E 14.8
31 Agosto 2026 03:00 tempo osservato: Sereno Sereno 21 52 1018 vento: Nord E 13
31 Agosto 2026 02:30 tempo osservato: Sereno Sereno 21 52 1017 vento: Nord E/NE 13
31 Agosto 2026 02:00 tempo osservato: Sereno Sereno 22 49 1017 vento: Nord NE 7.4
31 Agosto 2026 01:30 tempo osservato: Sereno Sereno 21 52 1017 vento: Nord NE 13
31 Agosto 2026 01:00 tempo osservato: Sereno Sereno 21 52 1017 vento: Nord NE 13
31 Agosto 2026 00:30 tempo osservato: Sereno Sereno 20 59 1017 vento: Nord N/NE 11.1
31 Agosto 2026 00:00 tempo osservato: Sereno Sereno 21 60 1017 vento: Nord NE 7.4
30 Agosto 2026 23:30 tempo osservato: Sereno Sereno 22 56 1017 vento: Nord E/NE 9.3
30 Agosto 2026 23:00 tempo osservato: Sereno Sereno 25 44 1017 vento: Nord E/SE 11.1
30 Agosto 2026 22:30 tempo osservato: Sereno Sereno 24 53 1017 vento: Nord N 3.7
30 Agosto 2026 22:00 tempo osservato: Sereno Sereno 26 50 1016 vento: Nord S/SE 9.3
30 Agosto 2026 21:30 tempo osservato: Sereno Sereno 26 54 1016 vento: Nord S/SE 14.8
30 Agosto 2026 21:00 tempo osservato: Sereno Sereno 27 47 1015 vento: Nord S 9.3
30 Agosto 2026 20:30 tempo osservato: Sereno Sereno 28 42 1015 vento: Nord S/SE 14.8
30 Agosto 2026 20:00 tempo osservato: Sereno Sereno 30 35 1015 vento: Nord S/SE 13
30 Agosto 2026 19:30 tempo osservato: Sereno Sereno 31 33 1015 vento: Nord S 14.8
30 Agosto 2026 19:00 tempo osservato: Sereno Sereno 32 27 1015 vento: Nord N 5.5
30 Agosto 2026 18:30 tempo osservato: Sereno Sereno 33 26 1015 vento: Nord N 1.8
30 Agosto 2026 18:00 tempo osservato: Sereno Sereno 32 25 1015 vento: Nord N 1.8
30 Agosto 2026 17:30 tempo osservato: Sereno Sereno 33 22 1015 vento: Nord SO 9.3
30 Agosto 2026 17:00 tempo osservato: Sereno Sereno 32 24 1015 vento: Nord N 5.5
30 Agosto 2026 16:30 tempo osservato: Sereno Sereno 31 33 1016 vento: Nord S 11.1
30 Agosto 2026 16:00 tempo osservato: Sereno Sereno 32 31 1016 vento: Nord SO 7.4
30 Agosto 2026 15:30 tempo osservato: Sereno Sereno 30 37 1017 vento: Nord SO 7.4
30 Agosto 2026 15:00 tempo osservato: Sereno Sereno 31 35 1017 vento: Nord S/SE 7.4
30 Agosto 2026 14:30 tempo osservato: Sereno Sereno 30 35 1017 vento: Nord S/SE 9.3
30 Agosto 2026 14:00 tempo osservato: Sereno Sereno 30 35 1018 vento: Nord S/SE 7.4
30 Agosto 2026 13:30 tempo osservato: Sereno Sereno 29 35 1018 vento: Nord S 13
30 Agosto 2026 13:00 tempo osservato: Sereno Sereno 29 35 1018 vento: Nord S/SE 9.3
30 Agosto 2026 12:30 tempo osservato: Sereno Sereno 28 39 1018 vento: Nord N 5.5
30 Agosto 2026 12:00 tempo osservato: Sereno Sereno 27 42 1019 vento: Nord N 5.5
30 Agosto 2026 11:30 tempo osservato: Sereno Sereno 26 44 1019 vento: Nord N 3.7
30 Agosto 2026 11:00 tempo osservato: Sereno Sereno 25 47 1019 vento: Nord E/NE 11.1
30 Agosto 2026 10:30 tempo osservato: Sereno Sereno 24 47 1019 vento: Nord E 11.1
30 Agosto 2026 10:00 tempo osservato: Sereno Sereno 24 43 1019 vento: Nord E/NE 13
30 Agosto 2026 09:30 tempo osservato: Sereno Sereno 23 46 1018 vento: Nord NE 13
30 Agosto 2026 09:00 tempo osservato: Sereno Sereno 22 49 1018 vento: Nord NE 13
30 Agosto 2026 08:30 tempo osservato: Sereno Sereno 21 52 1018 vento: Nord NE 11.1
30 Agosto 2026 08:00 tempo osservato: Sereno Sereno 20 56 1018 vento: Nord NE 11.1